首页
METAR-TAF:

METAR-TAF

机场 :

阿勒特機場

阿勒特, 努那武特, 加拿大

纬度: 82-31N, 经度: 062-17W, 海拔: 31米

当前天气观测

该预报发布于3小时和12分钟前的20:00 UTC
风速16节,风向西北
温度 -30°C
湿度 82%
气压 1002 hPa
能見度: 0.6公里
阴天层高于300英尺
小雪, 高吹雪

METAR: CYLT 262000Z 32016KT 3/8SM -SN BLSN OVC003 M30/M32 A2958 RMK ST8 LAST OBS/NEXT 270600 UTC SLP023

时间: 19:12 (23:12 UTC)

预报

该预报发布于5小时和42分钟前的17:30 UTC
预报有效从26日的 18点(UTC)到 27日的 06点(UTC)
风速15节,风向北转西北,有时为25节阵风
能見度: 0.6公里
阴天层高于700英尺
小雪, 高吹雪
短暂存在
从 26日的 18点(UTC)到 27日的 06点(UTC)
散云层高于700英尺
阴天层高于1500英尺
小雪

TAF: CYLT 261730Z 2618/2706 34015G25KT 3/8SM -SN BLSN OVC007 TEMPO 2618/2706 11/2SM -SN SCT007 OVC015 RMK NXT FCST BY 270000Z

超过4000个机场的气象观测和天气预报(METAR&TAF报告)。

可查询的气象台以黄色和红色小点在地图上表示。

将鼠标移到小点上方,可查看气象台名称。

然后点击查看天气观测和预报。

如需切换地图:点击带黑十字的绿色按钮放大地图;点击带横线的绿色按钮缩小地图;或者点击绿色箭头查看邻近地区的地图。


METAR-TAF: